sensor_id;sensor_type;location;lat;lon;timestamp;pressure;altitude;pressure_sealevel;temperature
67966;BMP280;54749;47.850;9.002;2023-05-15T00:02:26;95519.66;;;10.12
67966;BMP280;54749;47.850;9.002;2023-05-15T00:04:53;95523.59;;;10.05
67966;BMP280;54749;47.850;9.002;2023-05-15T00:07:21;95511.31;;;9.91
67966;BMP280;54749;47.850;9.002;2023-05-15T00:09:48;95522.78;;;9.84
67966;BMP280;54749;47.850;9.002;2023-05-15T00:12:15;95504.56;;;9.81
67966;BMP280;54749;47.850;9.002;2023-05-15T00:14:42;95516.75;;;9.76
67966;BMP280;54749;47.850;9.002;2023-05-15T00:17:09;95526.25;;;9.73
67966;BMP280;54749;47.850;9.002;2023-05-15T00:19:37;95509.97;;;9.66
67966;BMP280;54749;47.850;9.002;2023-05-15T00:22:04;95497.88;;;9.60
67966;BMP280;54749;47.850;9.002;2023-05-15T00:24:32;95519.41;;;9.53
67966;BMP280;54749;47.850;9.002;2023-05-15T00:27:00;95526.78;;;9.45
67966;BMP280;54749;47.850;9.002;2023-05-15T00:29:29;95503.09;;;9.37
67966;BMP280;54749;47.850;9.002;2023-05-15T00:31:56;95508.03;;;9.28
67966;BMP280;54749;47.850;9.002;2023-05-15T00:34:24;95506.94;;;9.21
67966;BMP280;54749;47.850;9.002;2023-05-15T00:36:51;95527.56;;;9.15
67966;BMP280;54749;47.850;9.002;2023-05-15T00:39:18;95507.19;;;9.08
67966;BMP280;54749;47.850;9.002;2023-05-15T00:41:47;95518.88;;;8.98
67966;BMP280;54749;47.850;9.002;2023-05-15T00:44:15;95531.25;;;8.90
67966;BMP280;54749;47.850;9.002;2023-05-15T00:46:44;95535.94;;;8.84
67966;BMP280;54749;47.850;9.002;2023-05-15T00:49:12;95512.03;;;8.78
67966;BMP280;54749;47.850;9.002;2023-05-15T00:51:40;95515.91;;;8.72
67966;BMP280;54749;47.850;9.002;2023-05-15T00:54:10;95502.03;;;8.66
67966;BMP280;54749;47.850;9.002;2023-05-15T00:56:38;95509.13;;;8.61
67966;BMP280;54749;47.850;9.002;2023-05-15T00:59:05;95527.16;;;8.57
67966;BMP280;54749;47.850;9.002;2023-05-15T01:01:33;95510.19;;;8.48
67966;BMP280;54749;47.850;9.002;2023-05-15T01:04:02;95507.31;;;8.42
67966;BMP280;54749;47.850;9.002;2023-05-15T01:06:30;95504.22;;;8.39
67966;BMP280;54749;47.850;9.002;2023-05-15T01:08:59;95514.31;;;8.39
67966;BMP280;54749;47.850;9.002;2023-05-15T01:11:30;95520.25;;;8.38
67966;BMP280;54749;47.850;9.002;2023-05-15T01:14:04;95504.34;;;8.37
67966;BMP280;54749;47.850;9.002;2023-05-15T01:16:34;95520.00;;;8.40
67966;BMP280;54749;47.850;9.002;2023-05-15T01:19:03;95511.09;;;8.47
67966;BMP280;54749;47.850;9.002;2023-05-15T01:24:10;95507.69;;;8.48
67966;BMP280;54749;47.850;9.002;2023-05-15T01:29:36;95509.13;;;8.61
67966;BMP280;54749;47.850;9.002;2023-05-15T01:32:18;95512.47;;;8.73
67966;BMP280;54749;47.850;9.002;2023-05-15T01:37:43;95510.63;;;8.96
67966;BMP280;54749;47.850;9.002;2023-05-15T01:40:13;95514.97;;;9.05
67966;BMP280;54749;47.850;9.002;2023-05-15T01:42:57;95518.63;;;9.11
67966;BMP280;54749;47.850;9.002;2023-05-15T01:45:27;95504.63;;;9.18
67966;BMP280;54749;47.850;9.002;2023-05-15T01:47:57;95501.75;;;9.23
67966;BMP280;54749;47.850;9.002;2023-05-15T01:50:26;95508.84;;;9.28
67966;BMP280;54749;47.850;9.002;2023-05-15T01:52:57;95503.09;;;9.37
67966;BMP280;54749;47.850;9.002;2023-05-15T01:55:26;95498.38;;;9.44
67966;BMP280;54749;47.850;9.002;2023-05-15T01:57:54;95496.28;;;9.48
67966;BMP280;54749;47.850;9.002;2023-05-15T02:00:23;95484.81;;;9.55
67966;BMP280;54749;47.850;9.002;2023-05-15T02:02:51;95490.28;;;9.60
67966;BMP280;54749;47.850;9.002;2023-05-15T02:05:19;95485.69;;;9.65
67966;BMP280;54749;47.850;9.002;2023-05-15T02:07:47;95498.59;;;9.71
67966;BMP280;54749;47.850;9.002;2023-05-15T02:10:16;95482.31;;;9.75
67966;BMP280;54749;47.850;9.002;2023-05-15T02:12:46;95495.50;;;9.79
67966;BMP280;54749;47.850;9.002;2023-05-15T02:15:15;95486.78;;;9.82
67966;BMP280;54749;47.850;9.002;2023-05-15T02:17:45;95478.06;;;9.86
67966;BMP280;54749;47.850;9.002;2023-05-15T02:20:12;95469.31;;;9.90
67966;BMP280;54749;47.850;9.002;2023-05-15T02:22:40;95481.00;;;9.91
67966;BMP280;54749;47.850;9.002;2023-05-15T02:25:07;95473.28;;;9.93
67966;BMP280;54749;47.850;9.002;2023-05-15T02:27:47;95481.41;;;9.96
67966;BMP280;54749;47.850;9.002;2023-05-15T02:37:51;95483.72;;;9.99
67966;BMP280;54749;47.850;9.002;2023-05-15T02:40:22;95479.88;;;10.04
67966;BMP280;54749;47.850;9.002;2023-05-15T02:42:51;95467.84;;;10.08
67966;BMP280;54749;47.850;9.002;2023-05-15T02:45:21;95469.41;;;10.09
67966;BMP280;54749;47.850;9.002;2023-05-15T02:47:49;95461.59;;;10.12
67966;BMP280;54749;47.850;9.002;2023-05-15T02:50:18;95468.13;;;10.14
67966;BMP280;54749;47.850;9.002;2023-05-15T02:52:45;95446.88;;;10.16
67966;BMP280;54749;47.850;9.002;2023-05-15T02:55:12;95457.78;;;10.17
67966;BMP280;54749;47.850;9.002;2023-05-15T02:57:39;95461.78;;;10.19
67966;BMP280;54749;47.850;9.002;2023-05-15T03:00:07;95449.84;;;10.21
67966;BMP280;54749;47.850;9.002;2023-05-15T03:02:37;95456.72;;;10.19
67966;BMP280;54749;47.850;9.002;2023-05-15T03:05:05;95443.41;;;10.17
67966;BMP280;54749;47.850;9.002;2023-05-15T03:07:32;95448.34;;;10.19
67966;BMP280;54749;47.850;9.002;2023-05-15T03:09:59;95449.97;;;10.20
67966;BMP280;54749;47.850;9.002;2023-05-15T03:12:26;95444.38;;;10.16
67966;BMP280;54749;47.850;9.002;2023-05-15T03:14:53;95438.88;;;10.12
67966;BMP280;54749;47.850;9.002;2023-05-15T03:17:20;95441.41;;;10.12
67966;BMP280;54749;47.850;9.002;2023-05-15T03:19:48;95432.22;;;10.11
67966;BMP280;54749;47.850;9.002;2023-05-15T03:22:15;95425.56;;;10.10
67966;BMP280;54749;47.850;9.002;2023-05-15T03:24:42;95436.34;;;10.12
67966;BMP280;54749;47.850;9.002;2023-05-15T03:27:09;95437.97;;;10.13
67966;BMP280;54749;47.850;9.002;2023-05-15T03:29:37;95423.75;;;10.12
67966;BMP280;54749;47.850;9.002;2023-05-15T03:32:04;95431.16;;;10.13
67966;BMP280;54749;47.850;9.002;2023-05-15T03:34:32;95423.47;;;10.15
67966;BMP280;54749;47.850;9.002;2023-05-15T03:36:58;95428.63;;;10.13
67966;BMP280;54749;47.850;9.002;2023-05-15T03:39:26;95425.34;;;10.13
67966;BMP280;54749;47.850;9.002;2023-05-15T03:41:53;95419.50;;;10.12
67966;BMP280;54749;47.850;9.002;2023-05-15T03:44:21;95428.53;;;10.15
67966;BMP280;54749;47.850;9.002;2023-05-15T03:46:48;95426.91;;;10.14
67966;BMP280;54749;47.850;9.002;2023-05-15T03:49:16;95425.34;;;10.13
67966;BMP280;54749;47.850;9.002;2023-05-15T03:51:43;95422.13;;;10.11
67966;BMP280;54749;47.850;9.002;2023-05-15T03:54:12;95433.84;;;10.12
67966;BMP280;54749;47.850;9.002;2023-05-15T03:56:39;95422.94;;;10.11
67966;BMP280;54749;47.850;9.002;2023-05-15T03:59:07;95435.19;;;10.15
67966;BMP280;54749;47.850;9.002;2023-05-15T04:01:34;95445.56;;;10.22
67966;BMP280;54749;47.850;9.002;2023-05-15T04:04:17;95436.53;;;10.19
67966;BMP280;54749;47.850;9.002;2023-05-15T04:06:43;95425.13;;;10.25
67966;BMP280;54749;47.850;9.002;2023-05-15T04:09:11;95426.16;;;10.22
67966;BMP280;54749;47.850;9.002;2023-05-15T04:11:38;95428.69;;;10.22
67966;BMP280;54749;47.850;9.002;2023-05-15T04:14:05;95436.41;;;10.21
67966;BMP280;54749;47.850;9.002;2023-05-15T04:16:32;95445.16;;;10.17
67966;BMP280;54749;47.850;9.002;2023-05-15T04:18:59;95438.38;;;10.17
67966;BMP280;54749;47.850;9.002;2023-05-15T04:21:26;95442.06;;;10.14
67966;BMP280;54749;47.850;9.002;2023-05-15T04:23:54;95445.41;;;10.14
67966;BMP280;54749;47.850;9.002;2023-05-15T04:26:21;95453.78;;;10.15
67966;BMP280;54749;47.850;9.002;2023-05-15T04:28:48;95458.81;;;10.15
67966;BMP280;54749;47.850;9.002;2023-05-15T04:31:29;95452.16;;;10.14
67966;BMP280;54749;47.850;9.002;2023-05-15T04:33:57;95447.91;;;10.14
67966;BMP280;54749;47.850;9.002;2023-05-15T04:36:24;95444.59;;;10.14
67966;BMP280;54749;47.850;9.002;2023-05-15T04:38:52;95457.22;;;10.14
67966;BMP280;54749;47.850;9.002;2023-05-15T04:41:19;95452.97;;;10.14
67966;BMP280;54749;47.850;9.002;2023-05-15T04:43:46;95442.06;;;10.14
67966;BMP280;54749;47.850;9.002;2023-05-15T04:46:13;95447.91;;;10.14
67966;BMP280;54749;47.850;9.002;2023-05-15T04:48:41;95442.63;;;10.17
67966;BMP280;54749;47.850;9.002;2023-05-15T04:51:08;95456.72;;;10.19
67966;BMP280;54749;47.850;9.002;2023-05-15T04:53:35;95436.28;;;10.22
67966;BMP280;54749;47.850;9.002;2023-05-15T04:56:02;95464.47;;;10.27
67966;BMP280;54749;47.850;9.002;2023-05-15T04:58:29;95466.88;;;10.29
67966;BMP280;54749;47.850;9.002;2023-05-15T05:00:56;95486.53;;;10.25
67966;BMP280;54749;47.850;9.002;2023-05-15T05:03:24;95486.22;;;10.19
67966;BMP280;54749;47.850;9.002;2023-05-15T05:05:51;95474.78;;;10.15
67966;BMP280;54749;47.850;9.002;2023-05-15T05:08:18;95475.59;;;10.15
67966;BMP280;54749;47.850;9.002;2023-05-15T05:10:45;95470.53;;;10.15
67966;BMP280;54749;47.850;9.002;2023-05-15T05:13:12;95481.28;;;10.17
67966;BMP280;54749;47.850;9.002;2023-05-15T05:15:39;95483.03;;;10.17
67966;BMP280;54749;47.850;9.002;2023-05-15T05:18:06;95493.13;;;10.17
67966;BMP280;54749;47.850;9.002;2023-05-15T05:20:33;95496.81;;;10.13
67966;BMP280;54749;47.850;9.002;2023-05-15T05:23:00;95501.09;;;10.13
67966;BMP280;54749;47.850;9.002;2023-05-15T05:25:27;95506.25;;;10.11
67966;BMP280;54749;47.850;9.002;2023-05-15T05:27:55;95496.81;;;10.13
67966;BMP280;54749;47.850;9.002;2023-05-15T05:30:22;95499.34;;;10.13
67966;BMP280;54749;47.850;9.002;2023-05-15T05:32:49;95493.91;;;10.17
67966;BMP280;54749;47.850;9.002;2023-05-15T05:35:16;95496.88;;;10.22
67966;BMP280;54749;47.850;9.002;2023-05-15T05:37:43;95489.44;;;10.21
67966;BMP280;54749;47.850;9.002;2023-05-15T05:40:10;95482.66;;;10.21
67966;BMP280;54749;47.850;9.002;2023-05-15T05:42:38;95493.44;;;10.23
67966;BMP280;54749;47.850;9.002;2023-05-15T05:45:05;95478.97;;;10.25
67966;BMP280;54749;47.850;9.002;2023-05-15T05:47:33;95489.06;;;10.25
67966;BMP280;54749;47.850;9.002;2023-05-15T05:50:00;95468.88;;;10.25
67966;BMP280;54749;47.850;9.002;2023-05-15T05:52:27;95481.50;;;10.25
67966;BMP280;54749;47.850;9.002;2023-05-15T05:54:55;95489.72;;;10.27
67966;BMP280;54749;47.850;9.002;2023-05-15T05:57:22;95465.81;;;10.31
67966;BMP280;54749;47.850;9.002;2023-05-15T05:59:49;95456.84;;;10.38
67966;BMP280;54749;47.850;9.002;2023-05-15T06:02:16;95453.63;;;10.36
67966;BMP280;54749;47.850;9.002;2023-05-15T06:04:43;95458.19;;;10.42
67966;BMP280;54749;47.850;9.002;2023-05-15T06:07:12;95457.41;;;10.50
67966;BMP280;54749;47.850;9.002;2023-05-15T06:09:39;95460.09;;;10.58
67966;BMP280;54749;47.850;9.002;2023-05-15T06:12:06;95473.75;;;10.76
67966;BMP280;54749;47.850;9.002;2023-05-15T06:14:34;95460.59;;;10.91
67966;BMP280;54749;47.850;9.002;2023-05-15T06:17:02;95480.38;;;11.15
67966;BMP280;54749;47.850;9.002;2023-05-15T06:19:29;95470.31;;;11.43
67966;BMP280;54749;47.850;9.002;2023-05-15T06:21:56;95448.09;;;11.74
67966;BMP280;54749;47.850;9.002;2023-05-15T06:24:23;95457.13;;;12.04
67966;BMP280;54749;47.850;9.002;2023-05-15T06:26:51;95447.50;;;12.17
67966;BMP280;54749;47.850;9.002;2023-05-15T06:29:18;95467.00;;;12.16
67966;BMP280;54749;47.850;9.002;2023-05-15T06:31:45;95460.31;;;12.25
67966;BMP280;54749;47.850;9.002;2023-05-15T06:34:12;95471.47;;;12.41
67966;BMP280;54749;47.850;9.002;2023-05-15T06:36:40;95459.41;;;12.61
67966;BMP280;54749;47.850;9.002;2023-05-15T06:39:07;95468.97;;;12.76
67966;BMP280;54749;47.850;9.002;2023-05-15T06:41:36;95470.94;;;12.82
67966;BMP280;54749;47.850;9.002;2023-05-15T06:44:04;95463.16;;;12.93
67966;BMP280;54749;47.850;9.002;2023-05-15T06:46:31;95463.03;;;12.94
67966;BMP280;54749;47.850;9.002;2023-05-15T06:48:58;95464.47;;;12.96
67966;BMP280;54749;47.850;9.002;2023-05-15T06:51:25;95465.56;;;12.94
67966;BMP280;54749;47.850;9.002;2023-05-15T06:53:52;95470.25;;;12.89
67966;BMP280;54749;47.850;9.002;2023-05-15T06:56:20;95486.72;;;12.76
67966;BMP280;54749;47.850;9.002;2023-05-15T06:58:47;95484.22;;;12.67
67966;BMP280;54749;47.850;9.002;2023-05-15T07:01:14;95493.97;;;12.62
67966;BMP280;54749;47.850;9.002;2023-05-15T07:03:41;95490.09;;;12.49
67966;BMP280;54749;47.850;9.002;2023-05-15T07:06:09;95482.28;;;12.33
67966;BMP280;54749;47.850;9.002;2023-05-15T07:08:36;95504.81;;;12.27
67966;BMP280;54749;47.850;9.002;2023-05-15T07:11:03;95504.59;;;12.21
67966;BMP280;54749;47.850;9.002;2023-05-15T07:13:30;95498.16;;;12.17
67966;BMP280;54749;47.850;9.002;2023-05-15T07:15:57;95507.25;;;12.10
67966;BMP280;54749;47.850;9.002;2023-05-15T07:18:24;95507.78;;;11.95
67966;BMP280;54749;47.850;9.002;2023-05-15T07:20:52;95514.72;;;11.93
67966;BMP280;54749;47.850;9.002;2023-05-15T07:23:19;95515.00;;;11.90
67966;BMP280;54749;47.850;9.002;2023-05-15T07:25:47;95514.72;;;11.84
67966;BMP280;54749;47.850;9.002;2023-05-15T07:28:14;95508.84;;;11.83
67966;BMP280;54749;47.850;9.002;2023-05-15T07:30:41;95513.63;;;11.86
67966;BMP280;54749;47.850;9.002;2023-05-15T07:33:08;95524.44;;;11.88
67966;BMP280;54749;47.850;9.002;2023-05-15T07:35:35;95510.72;;;11.90
67966;BMP280;54749;47.850;9.002;2023-05-15T07:38:02;95522.84;;;11.96
67966;BMP280;54749;47.850;9.002;2023-05-15T07:40:30;95528.03;;;12.04
67966;BMP280;54749;47.850;9.002;2023-05-15T07:42:57;95513.91;;;12.20
67966;BMP280;54749;47.850;9.002;2023-05-15T07:45:24;95510.53;;;12.38
67966;BMP280;54749;47.850;9.002;2023-05-15T07:47:52;95515.69;;;12.64
67966;BMP280;54749;47.850;9.002;2023-05-15T07:50:19;95518.44;;;12.89
67966;BMP280;54749;47.850;9.002;2023-05-15T07:52:46;95505.44;;;13.01
67966;BMP280;54749;47.850;9.002;2023-05-15T07:55:14;95506.91;;;13.21
67966;BMP280;54749;47.850;9.002;2023-05-15T07:57:41;95500.25;;;13.46
67966;BMP280;54749;47.850;9.002;2023-05-15T08:00:08;95503.94;;;13.68
67966;BMP280;54749;47.850;9.002;2023-05-15T08:02:39;95499.56;;;13.87
67966;BMP280;54749;47.850;9.002;2023-05-15T08:05:07;95498.53;;;14.15
67966;BMP280;54749;47.850;9.002;2023-05-15T08:07:34;95501.41;;;14.37
67966;BMP280;54749;47.850;9.002;2023-05-15T08:10:02;95484.31;;;14.71
67966;BMP280;54749;47.850;9.002;2023-05-15T08:12:32;95488.75;;;15.26
67966;BMP280;54749;47.850;9.002;2023-05-15T08:15:00;95485.81;;;15.62
67966;BMP280;54749;47.850;9.002;2023-05-15T08:17:27;95503.69;;;15.93
67966;BMP280;54749;47.850;9.002;2023-05-15T08:19:54;95488.13;;;16.35
67966;BMP280;54749;47.850;9.002;2023-05-15T08:22:22;95498.00;;;16.38
67966;BMP280;54749;47.850;9.002;2023-05-15T08:24:49;95498.66;;;16.24
67966;BMP280;54749;47.850;9.002;2023-05-15T08:27:16;95499.47;;;16.09
67966;BMP280;54749;47.850;9.002;2023-05-15T08:29:43;95505.63;;;15.91
67966;BMP280;54749;47.850;9.002;2023-05-15T08:32:10;95530.75;;;15.71
67966;BMP280;54749;47.850;9.002;2023-05-15T08:34:38;95505.53;;;15.60
67966;BMP280;54749;47.850;9.002;2023-05-15T08:37:05;95517.44;;;15.44
67966;BMP280;54749;47.850;9.002;2023-05-15T08:39:33;95514.31;;;15.17
67966;BMP280;54749;47.850;9.002;2023-05-15T08:42:20;95529.56;;;14.85
67966;BMP280;54749;47.850;9.002;2023-05-15T08:44:48;95529.47;;;14.77
67966;BMP280;54749;47.850;9.002;2023-05-15T08:47:17;95516.25;;;14.90
67966;BMP280;54749;47.850;9.002;2023-05-15T08:52:19;95516.19;;;16.27
67966;BMP280;54749;47.850;9.002;2023-05-15T08:54:47;95501.19;;;16.71
67966;BMP280;54749;47.850;9.002;2023-05-15T08:57:15;95503.34;;;16.97
67966;BMP280;54749;47.850;9.002;2023-05-15T08:59:43;95500.41;;;17.23
67966;BMP280;54749;47.850;9.002;2023-05-15T09:02:11;95490.97;;;17.61
67966;BMP280;54749;47.850;9.002;2023-05-15T09:04:39;95499.34;;;18.07
67966;BMP280;54749;47.850;9.002;2023-05-15T09:07:06;95471.22;;;19.84
67966;BMP280;54749;47.850;9.002;2023-05-15T09:09:34;95440.31;;;22.23
67966;BMP280;54749;47.850;9.002;2023-05-15T09:12:02;95408.41;;;23.98
67966;BMP280;54749;47.850;9.002;2023-05-15T09:14:30;95428.97;;;24.41
67966;BMP280;54749;47.850;9.002;2023-05-15T09:16:56;95429.53;;;24.43
67966;BMP280;54749;47.850;9.002;2023-05-15T09:19:25;95445.19;;;23.45
67966;BMP280;54749;47.850;9.002;2023-05-15T09:21:52;95454.63;;;22.70
67966;BMP280;54749;47.850;9.002;2023-05-15T09:24:20;95468.84;;;22.34
67966;BMP280;54749;47.850;9.002;2023-05-15T09:27:05;95452.94;;;21.99
67966;BMP280;54749;47.850;9.002;2023-05-15T09:29:34;95468.84;;;22.28
67966;BMP280;54749;47.850;9.002;2023-05-15T09:32:03;95463.66;;;22.03
67966;BMP280;54749;47.850;9.002;2023-05-15T09:34:32;95467.19;;;21.89
67966;BMP280;54749;47.850;9.002;2023-05-15T09:37:02;95487.28;;;21.67
67966;BMP280;54749;47.850;9.002;2023-05-15T09:39:29;95484.66;;;22.06
67966;BMP280;54749;47.850;9.002;2023-05-15T09:42:07;95475.97;;;22.26
67966;BMP280;54749;47.850;9.002;2023-05-15T09:44:39;95489.09;;;22.69
67966;BMP280;54749;47.850;9.002;2023-05-15T09:47:08;95464.28;;;23.18
67966;BMP280;54749;47.850;9.002;2023-05-15T09:49:36;95467.09;;;24.45
67966;BMP280;54749;47.850;9.002;2023-05-15T09:52:06;95458.69;;;24.80
67966;BMP280;54749;47.850;9.002;2023-05-15T09:54:34;95446.44;;;25.34
67966;BMP280;54749;47.850;9.002;2023-05-15T09:57:09;95472.72;;;24.06
67966;BMP280;54749;47.850;9.002;2023-05-15T09:59:45;95494.41;;;23.18
67966;BMP280;54749;47.850;9.002;2023-05-15T10:02:22;95510.06;;;22.47
67966;BMP280;54749;47.850;9.002;2023-05-15T10:04:54;95504.34;;;21.80
67966;BMP280;54749;47.850;9.002;2023-05-15T10:07:33;95491.03;;;22.23
67966;BMP280;54749;47.850;9.002;2023-05-15T10:10:03;95500.88;;;22.00
67966;BMP280;54749;47.850;9.002;2023-05-15T10:12:30;95490.66;;;22.32
67966;BMP280;54749;47.850;9.002;2023-05-15T10:14:59;95491.84;;;22.36
67966;BMP280;54749;47.850;9.002;2023-05-15T10:17:27;95480.59;;;23.68
67966;BMP280;54749;47.850;9.002;2023-05-15T10:19:58;95457.41;;;24.11
67966;BMP280;54749;47.850;9.002;2023-05-15T10:22:28;95459.53;;;24.74
67966;BMP280;54749;47.850;9.002;2023-05-15T10:25:05;95444.78;;;25.40
67966;BMP280;54749;47.850;9.002;2023-05-15T10:27:34;95437.78;;;25.58
67966;BMP280;54749;47.850;9.002;2023-05-15T10:30:02;95449.84;;;25.64
67966;BMP280;54749;47.850;9.002;2023-05-15T10:32:30;95427.94;;;27.41
67966;BMP280;54749;47.850;9.002;2023-05-15T10:34:59;95422.78;;;28.78
67966;BMP280;54749;47.850;9.002;2023-05-15T10:37:27;95433.16;;;27.19
67966;BMP280;54749;47.850;9.002;2023-05-15T10:39:56;95443.81;;;25.87
67966;BMP280;54749;47.850;9.002;2023-05-15T10:42:25;95450.03;;;24.68
67966;BMP280;54749;47.850;9.002;2023-05-15T10:44:52;95444.38;;;23.87
67966;BMP280;54749;47.850;9.002;2023-05-15T10:47:26;95453.91;;;23.93
67966;BMP280;54749;47.850;9.002;2023-05-15T10:49:53;95464.88;;;23.33
67966;BMP280;54749;47.850;9.002;2023-05-15T10:52:20;95470.03;;;23.08
67966;BMP280;54749;47.850;9.002;2023-05-15T10:54:47;95470.84;;;22.51
67966;BMP280;54749;47.850;9.002;2023-05-15T10:57:15;95470.38;;;22.04
67966;BMP280;54749;47.850;9.002;2023-05-15T10:59:42;95494.66;;;21.43
67966;BMP280;54749;47.850;9.002;2023-05-15T11:02:24;95499.09;;;20.95
67966;BMP280;54749;47.850;9.002;2023-05-15T11:04:54;95498.81;;;20.57
67966;BMP280;54749;47.850;9.002;2023-05-15T11:07:21;95503.88;;;20.31
67966;BMP280;54749;47.850;9.002;2023-05-15T11:09:51;95496.66;;;20.00
67966;BMP280;54749;47.850;9.002;2023-05-15T11:12:18;95495.06;;;19.78
67966;BMP280;54749;47.850;9.002;2023-05-15T11:17:22;95495.09;;;19.22
67966;BMP280;54749;47.850;9.002;2023-05-15T11:22:25;95499.50;;;19.13
67966;BMP280;54749;47.850;9.002;2023-05-15T11:27:40;95506.41;;;19.13
67966;BMP280;54749;47.850;9.002;2023-05-15T11:30:32;95506.81;;;18.88
67966;BMP280;54749;47.850;9.002;2023-05-15T11:33:04;95506.94;;;18.94
67966;BMP280;54749;47.850;9.002;2023-05-15T11:35:48;95515.78;;;18.70
67966;BMP280;54749;47.850;9.002;2023-05-15T11:38:23;95515.91;;;18.55
67966;BMP280;54749;47.850;9.002;2023-05-15T11:40:58;95506.88;;;18.44
67966;BMP280;54749;47.850;9.002;2023-05-15T11:43:30;95507.00;;;18.29
67966;BMP280;54749;47.850;9.002;2023-05-15T11:46:08;95502.75;;;18.22
67966;BMP280;54749;47.850;9.002;2023-05-15T11:48:40;95502.97;;;18.34
67966;BMP280;54749;47.850;9.002;2023-05-15T11:51:19;95496.31;;;18.61
67966;BMP280;54749;47.850;9.002;2023-05-15T11:53:49;95490.06;;;18.86
67966;BMP280;54749;47.850;9.002;2023-05-15T11:56:24;95486.09;;;19.12
67966;BMP280;54749;47.850;9.002;2023-05-15T11:58:58;95483.69;;;19.52
67966;BMP280;54749;47.850;9.002;2023-05-15T12:01:26;95478.81;;;19.92
67966;BMP280;54749;47.850;9.002;2023-05-15T12:03:55;95483.47;;;20.23
67966;BMP280;54749;47.850;9.002;2023-05-15T12:06:24;95473.94;;;20.58
67966;BMP280;54749;47.850;9.002;2023-05-15T12:08:52;95468.34;;;20.75
67966;BMP280;54749;47.850;9.002;2023-05-15T12:11:23;95474.91;;;20.57
67966;BMP280;54749;47.850;9.002;2023-05-15T12:13:52;95475.19;;;20.41
67966;BMP280;54749;47.850;9.002;2023-05-15T12:16:27;95474.00;;;20.44
67966;BMP280;54749;47.850;9.002;2023-05-15T12:18:58;95478.97;;;20.45
67966;BMP280;54749;47.850;9.002;2023-05-15T12:21:26;95482.25;;;20.39
67966;BMP280;54749;47.850;9.002;2023-05-15T12:23:53;95474.78;;;20.24
67966;BMP280;54749;47.850;9.002;2023-05-15T12:26:25;95485.44;;;20.21
67966;BMP280;54749;47.850;9.002;2023-05-15T12:28:54;95487.00;;;20.01
67966;BMP280;54749;47.850;9.002;2023-05-15T12:31:22;95492.66;;;19.77
67966;BMP280;54749;47.850;9.002;2023-05-15T12:33:49;95492.31;;;19.65
67966;BMP280;54749;47.850;9.002;2023-05-15T12:36:19;95497.00;;;19.48
67966;BMP280;54749;47.850;9.002;2023-05-15T12:38:47;95499.22;;;19.51
67966;BMP280;54749;47.850;9.002;2023-05-15T12:41:14;95510.44;;;19.36
67966;BMP280;54749;47.850;9.002;2023-05-15T12:43:41;95509.22;;;19.32
67966;BMP280;54749;47.850;9.002;2023-05-15T12:46:12;95506.66;;;19.18
67966;BMP280;54749;47.850;9.002;2023-05-15T12:48:39;95506.75;;;19.24
67966;BMP280;54749;47.850;9.002;2023-05-15T12:51:07;95507.19;;;19.28
67966;BMP280;54749;47.850;9.002;2023-05-15T12:53:34;95495.97;;;19.14
67966;BMP280;54749;47.850;9.002;2023-05-15T12:56:02;95505.97;;;19.24
67966;BMP280;54749;47.850;9.002;2023-05-15T12:58:30;95506.22;;;19.43
67966;BMP280;54749;47.850;9.002;2023-05-15T13:00:57;95503.13;;;19.47
67966;BMP280;54749;47.850;9.002;2023-05-15T13:03:24;95498.44;;;19.50
67966;BMP280;54749;47.850;9.002;2023-05-15T13:05:54;95497.22;;;19.18
67966;BMP280;54749;47.850;9.002;2023-05-15T13:08:21;95492.25;;;19.45
67966;BMP280;54749;47.850;9.002;2023-05-15T13:10:55;95494.13;;;19.65
67966;BMP280;54749;47.850;9.002;2023-05-15T13:13:22;95502.41;;;19.53
67966;BMP280;54749;47.850;9.002;2023-05-15T13:15:50;95492.50;;;19.78
67966;BMP280;54749;47.850;9.002;2023-05-15T13:18:17;95484.41;;;19.95
67966;BMP280;54749;47.850;9.002;2023-05-15T13:20:46;95487.59;;;20.38
67966;BMP280;54749;47.850;9.002;2023-05-15T13:23:16;95480.75;;;20.71
67966;BMP280;54749;47.850;9.002;2023-05-15T13:25:44;95482.16;;;21.01
67966;BMP280;54749;47.850;9.002;2023-05-15T13:28:12;95473.25;;;21.30
67966;BMP280;54749;47.850;9.002;2023-05-15T13:30:40;95479.38;;;21.68
67966;BMP280;54749;47.850;9.002;2023-05-15T13:33:09;95496.09;;;21.45
67966;BMP280;54749;47.850;9.002;2023-05-15T13:35:37;95480.47;;;21.53
67966;BMP280;54749;47.850;9.002;2023-05-15T13:38:04;95498.75;;;20.71
67966;BMP280;54749;47.850;9.002;2023-05-15T13:40:33;95493.00;;;20.29
67966;BMP280;54749;47.850;9.002;2023-05-15T13:43:03;95496.38;;;19.74
67966;BMP280;54749;47.850;9.002;2023-05-15T13:45:30;95495.00;;;19.58
67966;BMP280;54749;47.850;9.002;2023-05-15T13:47:57;95495.53;;;19.39
67966;BMP280;54749;47.850;9.002;2023-05-15T13:50:24;95492.09;;;19.04
67966;BMP280;54749;47.850;9.002;2023-05-15T13:52:52;95505.69;;;18.91
67966;BMP280;54749;47.850;9.002;2023-05-15T13:55:20;95501.91;;;18.07
67966;BMP280;54749;47.850;9.002;2023-05-15T13:57:48;95500.66;;;17.73
67966;BMP280;54749;47.850;9.002;2023-05-15T14:00:17;95485.94;;;17.75
67966;BMP280;54749;47.850;9.002;2023-05-15T14:02:45;95482.69;;;17.59
67966;BMP280;54749;47.850;9.002;2023-05-15T14:05:14;95486.81;;;17.31
67966;BMP280;54749;47.850;9.002;2023-05-15T14:07:41;95493.56;;;17.16
67966;BMP280;54749;47.850;9.002;2023-05-15T14:10:09;95488.63;;;17.15
67966;BMP280;54749;47.850;9.002;2023-05-15T14:12:36;95494.38;;;17.17
67966;BMP280;54749;47.850;9.002;2023-05-15T14:15:04;95496.63;;;17.12
67966;BMP280;54749;47.850;9.002;2023-05-15T14:17:40;95496.63;;;17.12
67966;BMP280;54749;47.850;9.002;2023-05-15T14:20:09;95482.38;;;17.25
67966;BMP280;54749;47.850;9.002;2023-05-15T14:22:39;95501.81;;;15.95
67966;BMP280;54749;47.850;9.002;2023-05-15T14:25:07;95501.03;;;15.46
67966;BMP280;54749;47.850;9.002;2023-05-15T14:27:35;95512.34;;;15.36
67966;BMP280;54749;47.850;9.002;2023-05-15T14:30:02;95497.22;;;15.42
67966;BMP280;54749;47.850;9.002;2023-05-15T14:32:30;95500.94;;;15.15
67966;BMP280;54749;47.850;9.002;2023-05-15T14:34:57;95495.91;;;15.31
67966;BMP280;54749;47.850;9.002;2023-05-15T14:37:25;95493.72;;;15.43
67966;BMP280;54749;47.850;9.002;2023-05-15T14:39:53;95489.56;;;15.42
67966;BMP280;54749;47.850;9.002;2023-05-15T14:42:20;95498.16;;;15.42
67966;BMP280;54749;47.850;9.002;2023-05-15T14:44:48;95492.13;;;15.42
67966;BMP280;54749;47.850;9.002;2023-05-15T14:47:15;95501.03;;;15.46